createdAt,value
2022-10-20T00:00:24.388Z,9.20
2022-10-20T00:01:24.388Z,9.24
2022-10-20T00:02:24.428Z,9.24
2022-10-20T00:03:24.386Z,9.20
2022-10-20T00:04:24.384Z,9.18
2022-10-20T00:05:24.375Z,9.17
2022-10-20T00:06:24.383Z,9.14
2022-10-20T00:07:24.376Z,9.08
2022-10-20T00:08:24.382Z,9.08
2022-10-20T00:09:24.369Z,9.08
2022-10-20T00:10:24.365Z,9.13
2022-10-20T00:11:24.366Z,9.13
2022-10-20T00:12:24.359Z,9.15
2022-10-20T00:13:24.358Z,9.05
2022-10-20T00:14:24.358Z,9.10
2022-10-20T00:15:24.354Z,9.13
2022-10-20T00:16:24.355Z,9.15
2022-10-20T00:17:24.351Z,9.18
2022-10-20T00:18:24.372Z,9.04
2022-10-20T00:19:24.344Z,9.10
2022-10-20T00:20:24.350Z,9.04
2022-10-20T00:21:24.342Z,9.04
2022-10-20T00:22:24.342Z,9.02
2022-10-20T00:23:24.342Z,8.91
2022-10-20T00:24:24.330Z,8.94
2022-10-20T00:25:24.335Z,8.89
2022-10-20T00:26:24.327Z,8.87
2022-10-20T00:27:24.326Z,8.94
2022-10-20T00:28:24.325Z,8.87
2022-10-20T00:29:24.330Z,8.86
2022-10-20T00:30:25.683Z,8.77
2022-10-20T00:31:24.336Z,8.86
2022-10-20T00:32:24.315Z,8.79
2022-10-20T00:33:24.317Z,8.68
2022-10-20T00:34:24.332Z,8.71
2022-10-20T00:35:24.312Z,8.76
2022-10-20T00:36:24.312Z,8.71
2022-10-20T00:37:24.305Z,8.71
2022-10-20T00:38:24.309Z,8.59
2022-10-20T00:39:24.300Z,8.65
2022-10-20T00:40:24.297Z,8.62
2022-10-20T00:41:24.298Z,8.50
2022-10-20T00:42:24.292Z,8.61
2022-10-20T00:43:24.292Z,8.53
2022-10-20T00:44:24.287Z,8.45
2022-10-20T00:45:24.289Z,8.47
2022-10-20T00:46:24.285Z,8.43
2022-10-20T00:47:24.284Z,8.44
2022-10-20T00:48:24.280Z,8.44
2022-10-20T00:49:24.294Z,8.48
2022-10-20T00:50:24.300Z,8.38
2022-10-20T00:51:24.273Z,8.40
2022-10-20T00:52:24.272Z,8.40
2022-10-20T00:53:24.271Z,8.50
2022-10-20T00:54:24.268Z,8.47
2022-10-20T00:55:24.267Z,8.44
2022-10-20T00:56:24.259Z,8.48
2022-10-20T00:57:24.258Z,8.45
2022-10-20T00:58:24.253Z,8.53
2022-10-20T00:59:24.254Z,8.44
2022-10-20T01:00:24.254Z,8.50
2022-10-20T01:01:24.271Z,8.53
2022-10-20T01:02:24.246Z,8.45
2022-10-20T01:03:24.246Z,8.38
2022-10-20T01:04:24.240Z,8.44
2022-10-20T01:05:24.248Z,8.45
2022-10-20T01:06:24.262Z,8.45
2022-10-20T01:07:24.234Z,8.45
2022-10-20T01:08:24.235Z,8.45
2022-10-20T01:09:24.228Z,8.47
2022-10-20T01:10:24.226Z,8.37
2022-10-20T01:11:24.228Z,8.36
2022-10-20T01:12:24.219Z,8.29
2022-10-20T01:13:24.218Z,8.33
2022-10-20T01:14:24.219Z,8.34
2022-10-20T01:16:24.214Z,8.20
2022-10-20T01:17:24.211Z,8.30
2022-10-20T01:18:24.202Z,8.25
2022-10-20T01:19:24.203Z,8.23
2022-10-20T01:20:24.206Z,8.30
2022-10-20T01:21:24.201Z,8.34
2022-10-20T01:22:24.222Z,8.30
2022-10-20T01:23:24.193Z,8.25
2022-10-20T01:24:24.288Z,8.29
2022-10-20T01:25:24.191Z,8.36
2022-10-20T01:26:24.188Z,8.30
2022-10-20T01:27:24.188Z,8.34
2022-10-20T01:28:24.182Z,8.34
2022-10-20T01:29:24.184Z,8.30
2022-10-20T01:30:24.180Z,8.28
2022-10-20T01:31:24.268Z,8.28
2022-10-20T01:32:24.171Z,8.37
2022-10-20T01:33:24.237Z,8.37
2022-10-20T01:34:24.165Z,8.36
2022-10-20T01:35:24.167Z,8.43
2022-10-20T01:36:24.162Z,8.36
2022-10-20T01:37:34.115Z,8.41
2022-10-20T01:38:24.187Z,8.52
2022-10-20T01:39:24.161Z,8.48
2022-10-20T01:40:24.153Z,8.68
2022-10-20T01:41:24.152Z,8.63
2022-10-20T01:42:24.156Z,8.63
2022-10-20T01:43:24.148Z,8.58
2022-10-20T01:44:24.154Z,8.73
2022-10-20T01:45:24.147Z,8.74
2022-10-20T01:46:24.136Z,8.73
2022-10-20T01:47:24.137Z,8.77
2022-10-20T01:48:24.133Z,8.80
2022-10-20T01:49:24.129Z,8.74
2022-10-20T01:50:24.125Z,8.71
2022-10-20T01:51:24.126Z,8.76
2022-10-20T01:52:24.120Z,8.77
2022-10-20T01:53:24.123Z,8.74
2022-10-20T01:54:24.141Z,8.73
2022-10-20T01:55:24.115Z,8.77
2022-10-20T01:56:24.110Z,8.81
2022-10-20T01:57:24.122Z,8.79
2022-10-20T01:58:24.114Z,8.83
2022-10-20T01:59:24.108Z,8.87
2022-10-20T02:00:24.103Z,8.80
2022-10-20T02:01:24.136Z,8.89
2022-10-20T02:02:24.097Z,8.80
2022-10-20T02:03:24.095Z,8.91
2022-10-20T02:04:24.087Z,8.84
2022-10-20T02:05:24.092Z,8.91
2022-10-20T02:06:24.090Z,8.81
2022-10-20T02:07:24.084Z,8.76
2022-10-20T02:08:24.081Z,8.84
2022-10-20T02:09:24.074Z,8.87
2022-10-20T02:10:24.092Z,8.87
2022-10-20T02:11:24.078Z,8.80
2022-10-20T02:12:24.069Z,8.86
2022-10-20T02:13:24.068Z,8.94
2022-10-20T02:14:24.071Z,8.92
2022-10-20T02:15:24.066Z,8.92
2022-10-20T02:16:24.066Z,8.92
2022-10-20T02:17:24.058Z,8.89
2022-10-20T02:18:24.057Z,8.84
2022-10-20T02:19:24.056Z,8.89
2022-10-20T02:20:24.056Z,8.83
2022-10-20T02:21:24.050Z,8.86
2022-10-20T02:22:24.049Z,8.89
2022-10-20T02:23:24.041Z,8.94
2022-10-20T02:24:24.047Z,8.95
2022-10-20T02:25:24.039Z,8.95
2022-10-20T02:26:24.056Z,8.83
2022-10-20T02:27:24.033Z,8.95
2022-10-20T02:28:24.028Z,8.79
2022-10-20T02:29:24.028Z,8.83
2022-10-20T02:30:24.031Z,8.83
2022-10-20T02:31:24.036Z,8.83
2022-10-20T02:32:24.016Z,8.76
2022-10-20T02:33:24.017Z,8.73
2022-10-20T02:34:24.013Z,8.76
2022-10-20T02:35:24.012Z,8.76
2022-10-20T02:36:24.007Z,8.76
2022-10-20T02:37:24.009Z,8.79
2022-10-20T02:38:24.007Z,8.77
2022-10-20T02:39:23.999Z,8.77
2022-10-20T02:40:23.996Z,8.86
2022-10-20T02:41:24.002Z,8.80
2022-10-20T02:42:24.015Z,8.80
2022-10-20T02:43:23.989Z,8.81
2022-10-20T02:44:23.983Z,8.77
2022-10-20T02:45:23.986Z,8.76
2022-10-20T02:46:23.981Z,8.81
2022-10-20T02:47:23.982Z,8.74
2022-10-20T02:48:23.975Z,8.71
2022-10-20T02:49:23.975Z,8.74
2022-10-20T02:50:23.971Z,8.80
2022-10-20T02:51:23.970Z,8.77
2022-10-20T02:52:23.972Z,8.76
2022-10-20T02:53:23.963Z,8.71
2022-10-20T02:54:23.957Z,8.83
2022-10-20T02:55:23.965Z,8.77
2022-10-20T02:56:25.489Z,8.84
2022-10-20T02:57:23.954Z,8.79
2022-10-20T02:58:23.968Z,8.73
2022-10-20T02:59:23.951Z,8.74
2022-10-20T03:00:23.942Z,8.71
2022-10-20T03:01:23.998Z,8.74
2022-10-20T03:02:23.944Z,8.73
2022-10-20T03:03:23.938Z,8.73
2022-10-20T03:05:23.940Z,8.71
2022-10-20T03:06:23.930Z,8.65
2022-10-20T03:07:23.929Z,8.63
2022-10-20T03:08:23.924Z,8.65
2022-10-20T03:09:23.926Z,8.70
2022-10-20T03:10:23.924Z,8.80
2022-10-20T03:11:23.917Z,8.76
2022-10-20T03:12:25.895Z,8.79
2022-10-20T03:13:23.964Z,8.66
2022-10-20T03:14:23.933Z,8.68
2022-10-20T03:15:23.909Z,8.86
2022-10-20T03:16:23.902Z,8.74
2022-10-20T03:17:23.905Z,8.80
2022-10-20T03:18:23.897Z,8.80
2022-10-20T03:19:23.895Z,8.71
2022-10-20T03:20:23.892Z,8.65
2022-10-20T03:21:23.896Z,8.66
2022-10-20T03:22:23.959Z,8.68
2022-10-20T03:23:23.885Z,8.71
2022-10-20T03:24:23.884Z,8.80
2022-10-20T03:25:23.879Z,8.73
2022-10-20T03:26:23.873Z,8.63
2022-10-20T03:27:23.874Z,8.59
2022-10-20T03:28:23.874Z,8.63
2022-10-20T03:29:23.864Z,8.81
2022-10-20T03:30:23.886Z,8.79
2022-10-20T03:31:23.869Z,8.77
2022-10-20T03:32:23.859Z,8.74
2022-10-20T03:33:23.857Z,8.76
2022-10-20T03:34:23.856Z,8.68
2022-10-20T03:35:23.856Z,8.63
2022-10-20T03:36:23.851Z,8.59
2022-10-20T03:37:23.853Z,8.74
2022-10-20T03:38:23.849Z,8.68
2022-10-20T03:39:23.843Z,8.70
2022-10-20T03:40:23.839Z,8.76
2022-10-20T03:41:23.840Z,8.63
2022-10-20T03:42:23.836Z,8.77
2022-10-20T03:43:23.833Z,8.66
2022-10-20T03:44:23.831Z,8.71
2022-10-20T03:45:23.826Z,8.65
2022-10-20T03:46:23.848Z,8.71
2022-10-20T03:47:23.821Z,8.80
2022-10-20T03:48:23.820Z,8.76
2022-10-20T03:49:23.814Z,8.84
2022-10-20T03:50:23.819Z,8.63
2022-10-20T03:51:23.811Z,8.70
2022-10-20T03:52:23.811Z,8.61
2022-10-20T03:53:23.807Z,8.65
2022-10-20T03:54:23.803Z,8.63
2022-10-20T03:55:23.799Z,8.58
2022-10-20T03:56:23.799Z,8.63
2022-10-20T03:57:23.794Z,8.63
2022-10-20T03:58:23.795Z,8.61
2022-10-20T03:59:26.728Z,8.65
2022-10-20T04:00:23.789Z,8.61
2022-10-20T04:01:23.800Z,8.76
2022-10-20T04:02:23.802Z,8.76
2022-10-20T04:03:23.778Z,8.73
2022-10-20T04:04:23.774Z,8.61
2022-10-20T04:05:23.778Z,8.62
2022-10-20T04:06:23.772Z,8.58
2022-10-20T04:07:23.773Z,8.58
2022-10-20T04:08:23.763Z,8.58
2022-10-20T04:09:23.763Z,8.59
2022-10-20T04:10:23.765Z,8.59
2022-10-20T04:11:23.757Z,8.56
2022-10-20T04:12:23.755Z,8.61
2022-10-20T04:13:23.749Z,8.61
2022-10-20T04:14:23.749Z,8.71
2022-10-20T04:15:23.749Z,8.65
2022-10-20T04:16:23.748Z,8.68
2022-10-20T04:17:23.744Z,8.62
2022-10-20T04:18:23.771Z,8.63
2022-10-20T04:19:23.734Z,8.68
2022-10-20T04:20:23.732Z,8.65
2022-10-20T04:21:23.731Z,8.59
2022-10-20T04:22:23.729Z,8.63
2022-10-20T04:23:23.723Z,8.56
2022-10-20T04:24:23.719Z,8.47
2022-10-20T04:25:23.718Z,8.48
2022-10-20T04:26:23.715Z,8.53
2022-10-20T04:27:23.714Z,8.55
2022-10-20T04:28:23.713Z,8.59
2022-10-20T04:29:23.710Z,8.52
2022-10-20T04:30:23.706Z,8.56
2022-10-20T04:31:23.699Z,8.56
2022-10-20T04:32:23.722Z,8.52
2022-10-20T04:33:23.693Z,8.45
2022-10-20T04:34:23.711Z,8.52
2022-10-20T04:35:23.696Z,8.52
2022-10-20T04:36:23.689Z,8.48
2022-10-20T04:37:23.684Z,8.37
2022-10-20T04:38:23.683Z,8.43
2022-10-20T04:39:23.681Z,8.43
2022-10-20T04:40:23.677Z,8.43
2022-10-20T04:41:23.673Z,8.40
2022-10-20T04:42:23.674Z,8.36
2022-10-20T04:43:23.670Z,8.41
2022-10-20T04:44:23.665Z,8.40
2022-10-20T04:45:23.663Z,8.37
2022-10-20T04:46:23.665Z,8.40
2022-10-20T04:47:23.664Z,8.36
2022-10-20T04:48:23.653Z,8.36
2022-10-20T04:49:23.650Z,8.37
2022-10-20T04:50:23.680Z,8.37
2022-10-20T04:51:23.644Z,8.38
2022-10-20T04:52:23.645Z,8.38
2022-10-20T04:53:23.643Z,8.44
2022-10-20T04:54:23.639Z,8.41
2022-10-20T04:55:23.633Z,8.40
2022-10-20T04:56:23.630Z,8.41
2022-10-20T04:57:23.627Z,8.43
2022-10-20T04:58:23.626Z,8.43
2022-10-20T04:59:23.632Z,8.43
2022-10-20T05:00:23.622Z,8.44
2022-10-20T05:01:23.661Z,8.44
2022-10-20T05:02:23.619Z,8.43
2022-10-20T05:03:23.614Z,8.52
2022-10-20T05:04:23.610Z,8.50
2022-10-20T05:05:23.605Z,8.38
2022-10-20T05:06:23.626Z,8.45
2022-10-20T05:07:23.606Z,8.41
2022-10-20T05:08:23.598Z,8.44
2022-10-20T05:09:23.600Z,8.37
2022-10-20T05:10:23.600Z,8.38
2022-10-20T05:11:23.588Z,8.40
2022-10-20T05:12:23.585Z,8.43
2022-10-20T05:13:23.589Z,8.43
2022-10-20T05:14:23.585Z,8.41
2022-10-20T05:15:23.576Z,8.41
2022-10-20T05:16:23.584Z,8.44
2022-10-20T05:17:23.573Z,8.30
2022-10-20T05:18:23.573Z,8.41
2022-10-20T05:19:23.567Z,8.25
2022-10-20T05:20:23.565Z,8.22
2022-10-20T05:21:23.564Z,8.38
2022-10-20T05:22:23.584Z,8.36
2022-10-20T05:23:23.557Z,8.36
2022-10-20T05:24:26.547Z,8.38
2022-10-20T05:25:38.959Z,8.40
2022-10-20T05:26:23.546Z,8.33
2022-10-20T05:27:23.548Z,8.29
2022-10-20T05:28:23.537Z,8.30
2022-10-20T05:29:23.540Z,8.29
2022-10-20T05:30:23.540Z,8.30
2022-10-20T05:31:23.532Z,8.33
2022-10-20T05:32:23.536Z,8.30
2022-10-20T05:33:23.528Z,8.38
2022-10-20T05:34:23.524Z,8.41
2022-10-20T05:35:23.524Z,8.48
2022-10-20T05:36:23.521Z,8.44
2022-10-20T05:37:26.571Z,8.48
2022-10-20T05:38:23.534Z,8.34
2022-10-20T05:39:23.511Z,8.36
2022-10-20T05:40:23.507Z,8.34
2022-10-20T05:41:23.593Z,8.25
2022-10-20T05:42:23.505Z,8.23
2022-10-20T05:43:23.500Z,8.30
2022-10-20T05:44:23.495Z,8.37
2022-10-20T05:45:23.493Z,8.34
2022-10-20T05:46:23.488Z,8.30
2022-10-20T05:47:23.487Z,8.33
2022-10-20T05:48:23.485Z,8.38
2022-10-20T05:49:23.479Z,8.26
2022-10-20T05:50:23.478Z,8.26
2022-10-20T05:51:23.481Z,8.34
2022-10-20T05:52:23.474Z,8.29
2022-10-20T05:53:23.471Z,8.33
2022-10-20T05:54:23.487Z,8.28
2022-10-20T05:55:23.460Z,8.33
2022-10-20T05:56:23.457Z,8.33
2022-10-20T05:57:23.459Z,8.30
2022-10-20T05:58:23.458Z,8.30
2022-10-20T05:59:23.453Z,8.34
2022-10-20T06:00:23.450Z,8.30
2022-10-20T06:01:23.558Z,8.25
2022-10-20T06:02:23.453Z,8.30
2022-10-20T06:03:24.902Z,8.36
2022-10-20T06:04:23.539Z,8.36
2022-10-20T06:05:23.431Z,8.30
2022-10-20T06:06:23.438Z,8.30
2022-10-20T06:07:23.428Z,8.33
2022-10-20T06:08:23.425Z,8.36
2022-10-20T06:09:23.423Z,8.23
2022-10-20T06:10:23.440Z,8.36
2022-10-20T06:11:23.418Z,8.36
2022-10-20T06:12:23.415Z,8.38
2022-10-20T06:13:23.411Z,8.45
2022-10-20T06:14:23.414Z,8.41
2022-10-20T06:15:23.407Z,8.38
2022-10-20T06:16:23.402Z,8.45
2022-10-20T06:17:23.853Z,8.38
2022-10-20T06:18:23.400Z,8.38
2022-10-20T06:19:23.393Z,8.40
2022-10-20T06:20:23.393Z,8.44
2022-10-20T06:21:23.389Z,8.44
2022-10-20T06:22:23.389Z,8.52
2022-10-20T06:23:23.379Z,8.44
2022-10-20T06:24:23.379Z,8.50
2022-10-20T06:25:23.377Z,8.58
2022-10-20T06:26:23.394Z,8.52
2022-10-20T06:27:23.370Z,8.62
2022-10-20T06:28:23.371Z,8.73
2022-10-20T06:29:23.364Z,8.68
2022-10-20T06:30:23.361Z,8.62
2022-10-20T06:31:23.357Z,8.76
2022-10-20T06:32:23.359Z,8.71
2022-10-20T06:33:23.357Z,8.63
2022-10-20T06:34:23.353Z,8.70
2022-10-20T06:35:23.356Z,8.80
2022-10-20T06:36:23.347Z,8.73
2022-10-20T06:37:23.337Z,8.77
2022-10-20T06:38:23.338Z,8.80
2022-10-20T06:39:23.336Z,8.68
2022-10-20T06:40:23.336Z,8.81
2022-10-20T06:41:23.331Z,8.86
2022-10-20T06:42:23.398Z,8.89
2022-10-20T06:43:23.324Z,9.02
2022-10-20T06:44:23.330Z,9.02
2022-10-20T06:45:23.316Z,9.01
2022-10-20T06:46:23.320Z,9.02
2022-10-20T06:47:23.321Z,9.10
2022-10-20T06:48:23.316Z,9.17
2022-10-20T06:49:23.308Z,9.10
2022-10-20T06:50:23.304Z,9.18
2022-10-20T06:51:23.304Z,9.15
2022-10-20T06:52:23.301Z,9.23
2022-10-20T06:53:23.298Z,9.23
2022-10-20T06:54:23.298Z,9.24
2022-10-20T06:55:23.306Z,9.50
2022-10-20T06:56:23.291Z,9.32
2022-10-20T06:57:23.282Z,9.51
2022-10-20T06:58:23.303Z,9.48
2022-10-20T06:59:23.282Z,9.50
2022-10-20T07:00:23.359Z,9.42
2022-10-20T07:01:23.411Z,9.46
2022-10-20T07:02:23.274Z,9.66
2022-10-20T07:03:23.268Z,9.64
2022-10-20T07:04:23.280Z,9.68
2022-10-20T07:05:23.267Z,9.75
2022-10-20T07:06:23.262Z,9.81
2022-10-20T07:07:23.360Z,9.89
2022-10-20T07:08:23.263Z,9.99
2022-10-20T07:09:23.261Z,10.09
2022-10-20T07:10:23.251Z,10.12
2022-10-20T07:11:23.252Z,10.08
2022-10-20T07:12:23.244Z,10.08
2022-10-20T07:13:23.245Z,10.18
2022-10-20T07:14:23.271Z,10.15
2022-10-20T07:15:23.239Z,10.26
2022-10-20T07:16:23.240Z,10.30
2022-10-20T07:17:23.231Z,10.38
2022-10-20T07:18:23.232Z,10.51
2022-10-20T07:19:23.233Z,10.56
2022-10-20T07:20:23.233Z,10.66
2022-10-20T07:21:23.222Z,10.68
2022-10-20T07:22:23.222Z,10.78
2022-10-20T07:23:23.220Z,10.79
2022-10-20T07:24:23.219Z,10.78
2022-10-20T07:25:23.214Z,10.89
2022-10-20T07:26:23.218Z,10.94
2022-10-20T07:27:23.214Z,11.02
2022-10-20T07:28:23.211Z,11.09
2022-10-20T07:29:23.222Z,11.11
2022-10-20T07:30:23.224Z,11.22
2022-10-20T07:31:23.210Z,11.22
2022-10-20T07:32:23.200Z,11.32
2022-10-20T07:33:23.198Z,11.40
2022-10-20T07:34:27.606Z,11.42
2022-10-20T07:35:23.196Z,11.35
2022-10-20T07:36:23.198Z,11.62
2022-10-20T07:37:23.190Z,11.69
2022-10-20T07:38:23.191Z,11.80
2022-10-20T07:39:23.189Z,11.76
2022-10-20T07:41:23.182Z,12.01
2022-10-20T07:42:23.177Z,12.05
2022-10-20T07:43:23.182Z,12.28
2022-10-20T07:44:23.174Z,12.31
2022-10-20T07:45:23.179Z,12.34
2022-10-20T07:46:23.198Z,12.47
2022-10-20T07:47:23.170Z,12.47
2022-10-20T07:48:23.168Z,12.64
2022-10-20T07:50:23.216Z,12.78
2022-10-20T07:51:23.171Z,12.82
2022-10-20T07:52:23.161Z,13.01
2022-10-20T07:53:23.162Z,13.07
2022-10-20T07:54:23.160Z,13.11
2022-10-20T07:55:38.062Z,13.11
2022-10-20T07:56:23.156Z,13.10
2022-10-20T07:57:23.159Z,13.14
2022-10-20T07:58:23.153Z,13.15
2022-10-20T07:59:23.153Z,13.26
2022-10-20T08:00:23.194Z,13.26
2022-10-20T08:01:23.212Z,13.30
2022-10-20T08:02:23.170Z,13.42
2022-10-20T08:03:23.148Z,13.36
2022-10-20T08:04:23.138Z,13.41
2022-10-20T08:05:23.141Z,13.52
2022-10-20T08:06:23.139Z,13.60
2022-10-20T08:07:23.141Z,13.66
2022-10-20T08:08:23.138Z,13.73
2022-10-20T08:09:23.139Z,13.79
2022-10-20T08:10:23.251Z,13.88
2022-10-20T08:11:23.134Z,13.96
2022-10-20T08:12:23.133Z,14.18
2022-10-20T08:13:23.129Z,14.18
2022-10-20T08:14:23.126Z,14.36
2022-10-20T08:15:23.133Z,14.54
2022-10-20T08:16:23.372Z,14.65
2022-10-20T08:17:23.132Z,14.75
2022-10-20T08:18:23.169Z,14.89
2022-10-20T08:19:23.650Z,15.03
2022-10-20T08:20:25.023Z,15.25
2022-10-20T08:21:23.120Z,15.51
2022-10-20T08:22:23.119Z,15.62
2022-10-20T08:23:23.120Z,15.72
2022-10-20T08:24:23.121Z,15.83
2022-10-20T08:25:23.116Z,16.02
2022-10-20T08:26:23.114Z,16.17
2022-10-20T08:27:23.125Z,16.66
2022-10-20T08:28:26.176Z,16.86
2022-10-20T08:29:23.118Z,17.06
2022-10-20T08:30:24.292Z,17.31
2022-10-20T08:31:23.126Z,17.44
2022-10-20T08:32:23.115Z,17.86
2022-10-20T08:33:23.116Z,17.97
2022-10-20T08:34:23.144Z,18.14
2022-10-20T08:35:23.124Z,18.20
2022-10-20T08:36:23.110Z,18.21
2022-10-20T08:37:23.120Z,18.26
2022-10-20T08:38:23.115Z,18.29
2022-10-20T08:39:23.112Z,18.14
2022-10-20T08:40:23.114Z,18.12
2022-10-20T08:41:23.115Z,18.20
2022-10-20T08:42:23.111Z,18.35
2022-10-20T08:43:23.114Z,18.47
2022-10-20T08:44:23.116Z,18.57
2022-10-20T08:45:23.114Z,18.47
2022-10-20T08:46:23.117Z,18.67
2022-10-20T08:47:23.612Z,18.91
2022-10-20T08:48:23.117Z,18.81
2022-10-20T08:49:23.222Z,18.82
2022-10-20T08:50:23.136Z,19.00
2022-10-20T08:51:23.117Z,18.82
2022-10-20T08:52:23.116Z,18.84
2022-10-20T08:53:23.116Z,18.78
2022-10-20T08:54:23.201Z,18.98
2022-10-20T08:55:23.123Z,19.23
2022-10-20T08:56:23.114Z,19.28
2022-10-20T08:57:23.121Z,19.31
2022-10-20T08:58:23.117Z,19.51
2022-10-20T08:59:23.122Z,19.51
2022-10-20T09:00:23.120Z,19.73
2022-10-20T09:01:23.248Z,19.95
2022-10-20T09:02:23.148Z,19.86
2022-10-20T09:03:23.124Z,19.91
2022-10-20T09:04:23.122Z,20.08
2022-10-20T09:05:23.127Z,20.33
2022-10-20T09:06:23.145Z,20.43
2022-10-20T09:07:23.127Z,20.57
2022-10-20T09:08:23.133Z,20.58
2022-10-20T09:09:23.169Z,20.14
2022-10-20T09:10:23.126Z,20.28
2022-10-20T09:11:23.133Z,20.31
2022-10-20T09:12:26.380Z,20.26
2022-10-20T09:13:23.131Z,20.33
2022-10-20T09:14:23.136Z,20.42
2022-10-20T09:15:23.139Z,20.28
2022-10-20T09:16:33.587Z,20.14
2022-10-20T09:17:23.142Z,20.02
2022-10-20T09:18:23.137Z,20.18
2022-10-20T09:19:23.147Z,20.26
2022-10-20T09:20:23.165Z,20.23
2022-10-20T09:21:23.147Z,20.24
2022-10-20T09:22:23.188Z,20.29
2022-10-20T09:23:40.145Z,20.43
2022-10-20T09:24:23.155Z,20.74
2022-10-20T09:25:23.158Z,20.84
2022-10-20T09:26:37.549Z,20.82
2022-10-20T09:27:23.165Z,21.03
2022-10-20T09:28:23.163Z,21.09
2022-10-20T09:29:23.166Z,21.24
2022-10-20T09:30:23.165Z,21.40
2022-10-20T09:31:23.175Z,21.62
2022-10-20T09:32:52.998Z,21.59
2022-10-20T09:33:23.179Z,21.75
2022-10-20T09:34:23.189Z,21.88
2022-10-20T09:35:23.189Z,22.02
2022-10-20T09:36:23.295Z,22.10
2022-10-20T09:37:23.194Z,21.74
2022-10-20T09:38:23.234Z,22.06
2022-10-20T09:39:23.213Z,22.12
2022-10-20T09:40:23.206Z,21.94
2022-10-20T09:41:23.210Z,22.28
2022-10-20T09:42:23.220Z,22.45
2022-10-20T09:43:23.223Z,22.51
2022-10-20T09:44:23.227Z,22.75
2022-10-20T09:45:23.229Z,22.55
2022-10-20T09:46:23.233Z,22.76
2022-10-20T09:47:23.243Z,22.92
2022-10-20T09:48:23.249Z,23.10
2022-10-20T09:49:23.253Z,23.50
2022-10-20T09:50:23.262Z,23.75
2022-10-20T09:51:23.267Z,23.95
2022-10-20T09:52:23.269Z,23.57
2022-10-20T09:53:23.280Z,23.48
2022-10-20T09:54:23.333Z,23.87
2022-10-20T09:55:23.289Z,23.87
2022-10-20T09:56:23.297Z,23.72
2022-10-20T09:57:23.301Z,23.33
2022-10-20T09:58:23.305Z,23.47
2022-10-20T09:59:23.317Z,23.31
2022-10-20T10:00:36.318Z,23.15
2022-10-20T10:01:23.350Z,23.35
2022-10-20T10:02:23.337Z,23.17
2022-10-20T10:03:23.351Z,22.82
2022-10-20T10:04:23.356Z,22.54
2022-10-20T10:05:23.363Z,22.35
2022-10-20T10:06:23.369Z,22.72
2022-10-20T10:07:23.377Z,23.01
2022-10-20T10:08:23.382Z,23.36
2022-10-20T10:09:26.526Z,23.51
2022-10-20T10:10:23.422Z,23.80
2022-10-20T10:11:23.407Z,23.83
2022-10-20T10:12:23.419Z,24.09
2022-10-20T10:13:24.937Z,24.20
2022-10-20T10:14:23.431Z,24.40
2022-10-20T10:15:23.440Z,24.91
2022-10-20T10:16:23.447Z,24.13
2022-10-20T10:17:23.462Z,23.95
2022-10-20T10:18:23.462Z,24.65
2022-10-20T10:19:23.471Z,25.21
2022-10-20T10:20:23.487Z,25.39
2022-10-20T10:21:23.490Z,25.70
2022-10-20T10:22:23.499Z,25.91
2022-10-20T10:23:23.501Z,25.65
2022-10-20T10:24:23.513Z,25.80
2022-10-20T10:25:23.521Z,25.75
2022-10-20T10:26:23.557Z,25.90
2022-10-20T10:27:23.536Z,25.62
2022-10-20T10:28:23.572Z,25.79
2022-10-20T10:29:23.553Z,25.82
2022-10-20T10:30:23.556Z,25.42
2022-10-20T10:31:23.595Z,25.39
2022-10-20T10:32:23.576Z,25.18
2022-10-20T10:33:23.593Z,24.93
2022-10-20T10:34:23.607Z,24.99
2022-10-20T10:35:23.609Z,24.85
2022-10-20T10:36:23.622Z,24.71
2022-10-20T10:37:23.657Z,24.55
2022-10-20T10:38:23.642Z,24.43
2022-10-20T10:39:23.654Z,24.50
2022-10-20T10:40:23.659Z,24.27
2022-10-20T10:41:23.672Z,24.57
2022-10-20T10:42:23.711Z,24.78
2022-10-20T10:43:23.688Z,24.87
2022-10-20T10:44:23.708Z,25.02
2022-10-20T10:45:23.715Z,25.33
2022-10-20T10:46:23.723Z,25.72
2022-10-20T10:47:23.741Z,25.79
2022-10-20T10:48:23.743Z,26.12
2022-10-20T10:49:23.760Z,26.30
2022-10-20T10:50:23.770Z,25.90
2022-10-20T10:51:23.786Z,25.98
2022-10-20T10:52:23.796Z,26.30
2022-10-20T10:53:23.806Z,26.26
2022-10-20T10:54:23.818Z,26.29
2022-10-20T10:55:47.057Z,26.43
2022-10-20T10:56:23.842Z,26.62
2022-10-20T10:57:23.856Z,26.75
2022-10-20T10:58:23.877Z,26.84
2022-10-20T10:59:23.879Z,27.22
2022-10-20T11:00:23.888Z,27.63
2022-10-20T11:01:23.903Z,27.75
2022-10-20T11:02:23.910Z,27.69
2022-10-20T11:03:23.926Z,27.97
2022-10-20T11:04:23.935Z,27.99
2022-10-20T11:05:23.963Z,28.04
2022-10-20T11:06:23.965Z,28.37
2022-10-20T11:07:23.975Z,28.27
2022-10-20T11:08:23.989Z,28.74
2022-10-20T11:09:24.005Z,28.96
2022-10-20T11:10:24.011Z,28.96
2022-10-20T11:11:24.225Z,28.54
2022-10-20T11:12:24.041Z,28.64
2022-10-20T11:13:26.205Z,28.92
2022-10-20T11:14:24.096Z,27.92
2022-10-20T11:15:24.085Z,28.06
2022-10-20T11:16:24.099Z,27.75
2022-10-20T11:17:24.108Z,28.12
2022-10-20T11:18:24.116Z,27.51
2022-10-20T11:19:24.134Z,27.27
2022-10-20T11:20:24.145Z,27.17
2022-10-20T11:21:24.158Z,27.60
2022-10-20T11:22:24.171Z,27.62
2022-10-20T11:23:24.302Z,28.09
2022-10-20T11:24:24.198Z,28.51
2022-10-20T11:25:24.217Z,28.49
2022-10-20T11:26:26.762Z,28.31
2022-10-20T11:27:24.243Z,28.46
2022-10-20T11:28:24.254Z,28.67
2022-10-20T11:29:24.265Z,29.02
2022-10-20T11:30:24.305Z,29.02
2022-10-20T11:31:24.300Z,28.12
2022-10-20T11:32:24.349Z,27.70
2022-10-20T11:33:24.329Z,27.70
2022-10-20T11:34:24.335Z,27.94
2022-10-20T11:35:24.357Z,28.11
2022-10-20T11:36:24.364Z,28.52
2022-10-20T11:37:24.379Z,29.11
2022-10-20T11:38:24.395Z,29.94
2022-10-20T11:39:24.419Z,30.37
2022-10-20T11:40:24.420Z,30.46
2022-10-20T11:41:24.433Z,30.54
2022-10-20T11:42:24.443Z,30.54
2022-10-20T11:43:24.462Z,30.67
2022-10-20T11:44:24.478Z,31.10
2022-10-20T11:45:24.487Z,31.23
2022-10-20T11:46:24.518Z,31.12
2022-10-20T11:47:24.512Z,30.22
2022-10-20T11:48:24.536Z,30.26
2022-10-20T11:49:24.537Z,30.69
2022-10-20T11:50:24.554Z,30.35
2022-10-20T11:51:24.566Z,30.01
2022-10-20T11:52:24.580Z,29.90
2022-10-20T11:53:24.597Z,30.38
2022-10-20T11:54:24.601Z,30.51
2022-10-20T11:55:24.613Z,30.82
2022-10-20T11:56:24.630Z,30.23
2022-10-20T11:57:24.643Z,29.98
2022-10-20T11:58:24.655Z,29.87
2022-10-20T11:59:24.670Z,29.70
2022-10-20T12:00:24.684Z,29.21
2022-10-20T12:01:24.693Z,29.57
2022-10-20T12:02:24.722Z,29.16
2022-10-20T12:03:24.714Z,29.11
2022-10-20T12:04:24.724Z,28.55
2022-10-20T12:05:24.735Z,28.31
2022-10-20T12:06:24.749Z,28.48
2022-10-20T12:07:24.760Z,28.09
2022-10-20T12:08:29.905Z,28.34
2022-10-20T12:09:24.873Z,28.07
2022-10-20T12:10:24.787Z,27.90
2022-10-20T12:11:24.799Z,27.72
2022-10-20T12:12:24.804Z,27.02
2022-10-20T12:13:24.824Z,26.07
2022-10-20T12:14:24.830Z,25.14
2022-10-20T12:15:24.836Z,24.45
2022-10-20T12:16:24.852Z,23.79
2022-10-20T12:17:24.850Z,23.65
2022-10-20T12:18:24.883Z,23.55
2022-10-20T12:19:24.870Z,23.31
2022-10-20T12:20:24.875Z,22.76
2022-10-20T12:21:24.887Z,22.77
2022-10-20T12:22:24.892Z,22.35
2022-10-20T12:23:24.903Z,22.18
2022-10-20T12:24:24.903Z,21.83
2022-10-20T12:25:24.911Z,21.74
2022-10-20T12:26:24.920Z,21.74
2022-10-20T12:27:24.930Z,21.61
2022-10-20T12:28:25.196Z,21.67
2022-10-20T12:29:24.941Z,21.34
2022-10-20T12:30:24.945Z,21.29
2022-10-20T12:31:24.947Z,21.34
2022-10-20T12:32:24.954Z,21.43
2022-10-20T12:33:24.961Z,21.46
2022-10-20T12:34:24.984Z,21.49
2022-10-20T12:35:24.973Z,21.50
2022-10-20T12:36:24.974Z,21.47
2022-10-20T12:37:24.976Z,21.32
2022-10-20T12:38:24.989Z,21.10
2022-10-20T12:39:24.986Z,20.70
2022-10-20T12:40:24.987Z,20.52
2022-10-20T12:41:24.992Z,20.48
2022-10-20T12:42:25.002Z,20.29
2022-10-20T12:43:25.005Z,20.29
2022-10-20T12:44:25.002Z,20.33
2022-10-20T12:45:25.011Z,20.50
2022-10-20T12:46:25.013Z,20.59
2022-10-20T12:47:25.013Z,20.61
2022-10-20T12:48:25.022Z,20.70
2022-10-20T12:49:25.015Z,20.57
2022-10-20T12:50:25.052Z,20.57
2022-10-20T12:51:25.026Z,20.42
2022-10-20T12:52:25.032Z,20.48
2022-10-20T12:53:25.033Z,20.57
2022-10-20T12:54:25.034Z,20.43
2022-10-20T12:55:25.057Z,20.55
2022-10-20T12:56:25.040Z,20.59
2022-10-20T12:57:25.040Z,20.72
2022-10-20T12:58:25.043Z,20.57
2022-10-20T12:59:25.058Z,20.54
2022-10-20T13:00:25.200Z,20.42
2022-10-20T13:01:25.055Z,20.38
2022-10-20T13:02:25.059Z,20.52
2022-10-20T13:03:26.164Z,20.47
2022-10-20T13:04:25.081Z,20.32
2022-10-20T13:05:25.060Z,20.36
2022-10-20T13:06:25.091Z,20.39
2022-10-20T13:07:25.067Z,20.26
2022-10-20T13:08:25.083Z,20.21
2022-10-20T13:09:25.069Z,20.14
2022-10-20T13:10:25.069Z,20.28